createdAt,value
2022-12-11T00:01:13.693Z,17.40
2022-12-11T00:03:41.948Z,17.33
2022-12-11T00:06:14.013Z,16.80
2022-12-11T00:08:42.327Z,17.17
2022-12-11T00:11:11.437Z,17.57
2022-12-11T00:13:39.633Z,18.33
2022-12-11T00:16:08.511Z,16.70
2022-12-11T00:18:36.658Z,16.63
2022-12-11T00:21:06.575Z,15.47
2022-12-11T00:23:37.482Z,17.03
2022-12-11T00:26:07.298Z,16.93
2022-12-11T00:28:35.624Z,17.10
2022-12-11T00:31:05.806Z,16.17
2022-12-11T00:33:34.079Z,17.33
2022-12-11T00:36:02.475Z,15.77
2022-12-11T00:38:30.565Z,16.27
2022-12-11T00:41:01.630Z,16.97
2022-12-11T00:43:29.601Z,16.37
2022-12-11T00:45:58.150Z,15.40
2022-12-11T00:48:26.141Z,16.73
2022-12-11T00:50:54.469Z,15.77
2022-12-11T00:53:22.713Z,17.80
2022-12-11T00:55:50.972Z,17.73
2022-12-11T00:58:21.159Z,15.10
2022-12-11T01:00:49.973Z,17.07
2022-12-11T01:03:19.150Z,16.50
2022-12-11T01:05:54.365Z,16.20
2022-12-11T01:08:22.832Z,16.77
2022-12-11T01:10:50.251Z,17.17
2022-12-11T01:13:20.084Z,15.30
2022-12-11T01:15:48.472Z,17.30
2022-12-11T01:18:16.704Z,16.77
2022-12-11T01:20:45.361Z,16.47
2022-12-11T01:23:14.062Z,15.57
2022-12-11T01:25:42.822Z,15.23
2022-12-11T01:28:12.016Z,16.43
2022-12-11T01:30:43.200Z,15.10
2022-12-11T01:33:11.736Z,14.10
2022-12-11T01:35:41.258Z,13.63
2022-12-11T01:38:09.806Z,14.53
2022-12-11T01:40:38.245Z,14.77
2022-12-11T01:43:06.621Z,14.23
2022-12-11T01:45:44.692Z,13.93
2022-12-11T01:48:17.466Z,13.10
2022-12-11T01:50:49.389Z,12.00
2022-12-11T01:53:20.931Z,13.80
2022-12-11T01:55:50.594Z,15.07
2022-12-11T01:58:21.845Z,14.23
2022-12-11T02:00:51.722Z,12.23
2022-12-11T02:03:19.741Z,15.63
2022-12-11T02:05:48.147Z,14.53
2022-12-11T02:08:17.022Z,14.60
2022-12-11T02:11:00.321Z,14.13
2022-12-11T02:13:35.948Z,13.73
2022-12-11T02:16:14.873Z,14.20
2022-12-11T02:18:49.917Z,14.20
2022-12-11T02:21:21.922Z,13.53
2022-12-11T02:24:15.661Z,15.07
2022-12-11T02:27:08.334Z,13.37
2022-12-11T02:29:40.365Z,13.47
2022-12-11T02:32:14.989Z,12.67
2022-12-11T02:34:47.461Z,13.43
2022-12-11T02:37:20.581Z,12.90
2022-12-11T02:39:51.577Z,11.77
2022-12-11T02:42:20.333Z,14.43
2022-12-11T02:44:52.268Z,14.07
2022-12-11T02:47:22.547Z,12.23
2022-12-11T02:49:51.514Z,15.23
2022-12-11T02:52:22.923Z,13.60
2022-12-11T02:54:53.594Z,13.67
2022-12-11T02:57:28.862Z,13.53
2022-12-11T02:59:58.716Z,13.97
2022-12-11T03:02:27.050Z,11.53
2022-12-11T03:04:56.631Z,14.03
2022-12-11T03:07:28.353Z,13.20
2022-12-11T03:09:56.383Z,12.90
2022-12-11T03:12:29.281Z,12.70
2022-12-11T03:15:00.655Z,12.13
2022-12-11T03:17:34.601Z,12.23
2022-12-11T03:20:08.557Z,12.50
2022-12-11T03:22:40.705Z,11.37
2022-12-11T03:25:12.282Z,11.47
2022-12-11T03:27:47.630Z,10.37
2022-12-11T03:30:22.678Z,10.97
2022-12-11T03:32:56.016Z,10.43
2022-12-11T03:35:26.793Z,11.40
2022-12-11T03:37:57.633Z,11.20
2022-12-11T03:40:28.965Z,10.73
2022-12-11T03:42:58.765Z,11.63
2022-12-11T03:45:31.156Z,9.80
2022-12-11T03:48:01.830Z,11.23
2022-12-11T03:50:33.137Z,10.03
2022-12-11T03:53:02.373Z,10.87
2022-12-11T03:55:31.733Z,9.77
2022-12-11T03:58:00.221Z,9.63
2022-12-11T04:00:30.735Z,10.67
2022-12-11T04:03:14.660Z,10.33
2022-12-11T04:05:44.575Z,9.43
2022-12-11T04:08:13.311Z,9.83
2022-12-11T04:10:41.523Z,9.90
2022-12-11T04:13:09.972Z,10.93
2022-12-11T04:15:39.484Z,9.10
2022-12-11T04:18:26.321Z,10.57
2022-12-11T04:21:12.478Z,9.33
2022-12-11T04:23:58.709Z,11.07
2022-12-11T04:26:27.407Z,9.63
2022-12-11T04:28:55.584Z,7.17
2022-12-11T04:31:25.588Z,9.93
2022-12-11T04:33:54.103Z,8.73
2022-12-11T04:36:22.181Z,9.17
2022-12-11T04:38:50.354Z,8.30
2022-12-11T04:41:19.251Z,9.30
2022-12-11T04:43:47.663Z,9.17
2022-12-11T04:46:18.357Z,8.63
2022-12-11T04:48:52.397Z,8.60
2022-12-11T04:51:23.780Z,9.00
2022-12-11T04:53:52.394Z,8.47
2022-12-11T04:56:21.120Z,7.83
2022-12-11T04:58:49.431Z,7.93
2022-12-11T05:01:19.196Z,8.90
2022-12-11T05:03:49.476Z,8.30
2022-12-11T05:06:17.907Z,7.37
2022-12-11T05:08:46.395Z,7.67
2022-12-11T05:11:16.598Z,8.00
2022-12-11T05:13:45.613Z,7.47
2022-12-11T05:16:16.054Z,8.53
2022-12-11T05:18:44.396Z,6.97
2022-12-11T05:21:16.283Z,6.20
2022-12-11T05:23:44.756Z,6.33
2022-12-11T05:26:15.210Z,7.37
2022-12-11T05:28:43.528Z,7.13
2022-12-11T05:31:15.117Z,7.40
2022-12-11T05:33:43.343Z,7.50
2022-12-11T05:36:18.378Z,7.27
2022-12-11T05:38:46.767Z,7.50
2022-12-11T05:41:17.215Z,6.27
2022-12-11T05:43:45.632Z,6.87
2022-12-11T05:46:15.530Z,7.10
2022-12-11T05:48:44.470Z,6.87
2022-12-11T05:51:13.023Z,7.00
2022-12-11T05:53:43.127Z,6.20
2022-12-11T05:56:14.669Z,6.17
2022-12-11T05:58:44.291Z,5.80
2022-12-11T06:01:14.937Z,5.80
2022-12-11T06:03:43.295Z,6.10
2022-12-11T06:06:11.693Z,5.90
2022-12-11T06:08:40.073Z,6.00
2022-12-11T06:11:09.855Z,5.57
2022-12-11T06:13:38.185Z,5.80
2022-12-11T06:16:08.112Z,6.00
2022-12-11T06:18:37.783Z,6.30
2022-12-11T06:21:12.827Z,6.17
2022-12-11T06:23:41.382Z,6.30
2022-12-11T06:26:11.158Z,6.27
2022-12-11T06:28:39.609Z,6.43
2022-12-11T06:31:07.832Z,6.47
2022-12-11T06:33:36.490Z,7.77
2022-12-11T06:36:04.984Z,6.70
2022-12-11T06:38:33.670Z,6.40
2022-12-11T06:41:04.683Z,7.57
2022-12-11T06:43:35.262Z,7.27
2022-12-11T06:46:05.856Z,7.73
2022-12-11T06:48:34.479Z,7.47
2022-12-11T06:51:06.654Z,7.77
2022-12-11T06:53:35.048Z,8.30
2022-12-11T06:56:03.988Z,8.67
2022-12-11T06:58:35.685Z,8.37
2022-12-11T07:01:04.651Z,8.67
2022-12-11T07:03:33.523Z,8.33
2022-12-11T07:06:02.856Z,8.90
2022-12-11T07:08:31.993Z,9.50
2022-12-11T07:11:05.404Z,9.87
2022-12-11T07:13:35.621Z,9.93
2022-12-11T07:16:05.682Z,9.70
2022-12-11T07:18:33.964Z,10.17
2022-12-11T07:21:02.355Z,10.33
2022-12-11T07:23:30.829Z,11.23
2022-12-11T07:26:13.258Z,9.20
2022-12-11T07:28:43.338Z,10.73
2022-12-11T07:31:13.105Z,10.73
2022-12-11T07:33:42.417Z,10.20
2022-12-11T07:36:14.193Z,11.50
2022-12-11T07:38:42.656Z,10.57
2022-12-11T07:41:12.627Z,11.43
2022-12-11T07:43:41.045Z,9.90
2022-12-11T07:46:13.718Z,11.47
2022-12-11T07:48:42.689Z,10.93
2022-12-11T07:51:11.806Z,10.30
2022-12-11T07:53:40.662Z,10.70
2022-12-11T07:56:09.245Z,9.20
2022-12-11T07:58:38.997Z,11.57
2022-12-11T08:01:07.840Z,12.00
2022-12-11T08:03:37.347Z,9.60
2022-12-11T08:06:05.731Z,11.20
2022-12-11T08:08:33.828Z,10.90
2022-12-11T08:11:02.770Z,11.77
2022-12-11T08:13:31.136Z,11.50
2022-12-11T08:15:59.436Z,10.80
2022-12-11T08:18:27.424Z,10.97
2022-12-11T08:20:57.234Z,10.17
2022-12-11T08:23:25.637Z,11.77
2022-12-11T08:25:53.584Z,10.43
2022-12-11T08:28:21.587Z,10.50
2022-12-11T08:30:50.076Z,10.80
2022-12-11T08:33:18.845Z,10.93
2022-12-11T08:35:47.445Z,10.63
2022-12-11T08:38:22.223Z,11.37
2022-12-11T08:40:53.065Z,9.90
2022-12-11T08:43:21.650Z,10.17
2022-12-11T08:45:49.570Z,11.03
2022-12-11T08:48:17.567Z,10.70
2022-12-11T08:50:45.596Z,9.63
2022-12-11T08:53:13.788Z,7.97
2022-12-11T08:55:43.484Z,10.53
2022-12-11T08:58:11.649Z,9.40
2022-12-11T09:00:39.625Z,9.40
2022-12-11T09:03:12.608Z,9.37
2022-12-11T09:05:41.250Z,10.30
2022-12-11T09:08:09.372Z,8.83
2022-12-11T09:10:37.892Z,6.53
2022-12-11T09:13:07.544Z,7.50
2022-12-11T09:15:36.317Z,9.27
2022-12-11T09:18:04.755Z,9.77
2022-12-11T09:20:32.961Z,8.47
2022-12-11T09:23:00.805Z,9.60
2022-12-11T09:25:28.738Z,9.83
2022-12-11T09:27:57.122Z,9.37
2022-12-11T09:30:26.737Z,7.67
2022-12-11T09:32:55.499Z,7.77
2022-12-11T09:35:23.463Z,9.27
2022-12-11T09:37:51.919Z,9.53
2022-12-11T09:40:20.287Z,7.97
2022-12-11T09:42:55.391Z,9.20
2022-12-11T09:45:23.702Z,8.20
2022-12-11T09:47:54.413Z,9.30
2022-12-11T09:50:24.482Z,9.17
2022-12-11T09:53:05.158Z,8.13
2022-12-11T09:55:43.273Z,8.93
2022-12-11T09:58:21.223Z,9.90
2022-12-11T10:00:53.508Z,8.47
2022-12-11T10:03:50.424Z,9.07
2022-12-11T10:06:25.912Z,8.93
2022-12-11T10:09:03.790Z,9.33
2022-12-11T10:11:42.077Z,8.47
2022-12-11T10:14:12.407Z,6.67
2022-12-11T10:16:44.294Z,8.73
2022-12-11T10:19:20.515Z,8.83
2022-12-11T10:21:50.112Z,8.83
2022-12-11T10:24:57.855Z,7.57
2022-12-11T10:27:19.210Z,8.97
2022-12-11T10:29:47.872Z,8.03
2022-12-11T10:32:23.925Z,8.53
2022-12-11T10:34:58.758Z,7.50
2022-12-11T10:37:27.041Z,5.57
2022-12-11T10:39:55.289Z,8.27
2022-12-11T10:42:24.824Z,7.47
2022-12-11T10:45:01.766Z,6.77
2022-12-11T10:47:30.486Z,7.83
2022-12-11T10:50:01.975Z,7.90
2022-12-11T10:52:34.322Z,7.33
2022-12-11T10:55:05.198Z,7.40
2022-12-11T10:57:36.442Z,7.50
2022-12-11T11:00:08.100Z,8.07
2022-12-11T11:02:38.379Z,7.87
2022-12-11T11:05:16.578Z,7.10
2022-12-11T11:07:45.236Z,8.00
2022-12-11T11:10:18.513Z,7.73
2022-12-11T11:12:48.328Z,7.63
2022-12-11T11:15:18.750Z,7.40
2022-12-11T11:17:54.905Z,8.67
2022-12-11T11:20:27.767Z,6.67
2022-12-11T11:22:57.777Z,8.13
2022-12-11T11:25:27.583Z,8.13
2022-12-11T11:27:57.374Z,7.43
2022-12-11T11:30:27.428Z,7.63
2022-12-11T11:32:57.704Z,6.17
2022-12-11T11:35:29.064Z,8.07
2022-12-11T11:38:06.466Z,7.40
2022-12-11T11:40:40.803Z,6.07
2022-12-11T11:43:18.215Z,4.53
2022-12-11T11:45:49.286Z,6.53
2022-12-11T11:48:32.474Z,6.10
2022-12-11T11:51:04.118Z,5.90
2022-12-11T11:53:40.543Z,5.53
2022-12-11T11:56:22.410Z,6.60
2022-12-11T11:58:56.165Z,7.87
2022-12-11T12:01:24.437Z,4.83
2022-12-11T12:03:53.630Z,7.60
2022-12-11T12:06:32.176Z,7.03
2022-12-11T12:09:04.345Z,5.67
2022-12-11T12:11:39.859Z,5.07
2022-12-11T12:14:50.745Z,6.47
2022-12-11T12:17:18.150Z,6.73
2022-12-11T12:19:53.172Z,6.77
2022-12-11T12:22:39.249Z,6.50
2022-12-11T12:25:16.525Z,6.70
2022-12-11T12:27:55.739Z,8.13
2022-12-11T12:30:49.768Z,6.77
2022-12-11T12:33:39.153Z,5.87
2022-12-11T12:36:11.661Z,6.33
2022-12-11T12:38:44.716Z,5.87
2022-12-11T12:41:19.448Z,4.77
2022-12-11T12:43:54.730Z,4.73
2022-12-11T12:46:35.363Z,5.40
2022-12-11T12:49:04.554Z,4.87
2022-12-11T12:51:33.206Z,5.37
2022-12-11T12:54:10.659Z,6.47
2022-12-11T12:56:43.617Z,5.50
2022-12-11T12:59:21.223Z,4.47
2022-12-11T13:01:52.314Z,4.40
2022-12-11T13:04:54.858Z,4.87
2022-12-11T13:07:23.235Z,3.40
2022-12-11T13:10:01.003Z,4.97
2022-12-11T13:12:44.175Z,2.90
2022-12-11T13:15:26.261Z,4.83
2022-12-11T13:17:54.781Z,3.10
2022-12-11T13:20:26.106Z,4.80
2022-12-11T13:23:16.052Z,4.80
2022-12-11T13:25:52.118Z,6.10
2022-12-11T13:28:28.267Z,5.77
2022-12-11T13:31:05.764Z,5.93
2022-12-11T13:33:34.610Z,5.93
2022-12-11T13:36:27.930Z,5.73
2022-12-11T13:38:59.750Z,5.00
2022-12-11T13:41:31.190Z,5.73
2022-12-11T13:43:59.681Z,5.13
2022-12-11T13:46:33.075Z,5.27
2022-12-11T13:49:03.874Z,5.03
2022-12-11T13:51:35.076Z,5.70
2022-12-11T13:54:07.184Z,6.10
2022-12-11T13:56:36.776Z,4.47
2022-12-11T13:59:04.833Z,4.80
2022-12-11T14:01:34.386Z,4.60
2022-12-11T14:04:09.123Z,4.83
2022-12-11T14:06:38.330Z,5.73
2022-12-11T14:09:08.105Z,4.37
2022-12-11T14:11:42.727Z,5.60
2022-12-11T14:14:20.130Z,4.47
2022-12-11T14:16:49.359Z,4.80
2022-12-11T14:19:20.584Z,5.10
2022-12-11T14:21:56.908Z,4.40
2022-12-11T14:24:25.186Z,4.33
2022-12-11T14:26:55.798Z,5.07
2022-12-11T14:29:26.659Z,4.50
2022-12-11T14:31:55.482Z,5.30
2022-12-11T14:34:27.317Z,5.00
2022-12-11T14:36:56.143Z,3.33
2022-12-11T14:39:28.456Z,4.37
2022-12-11T14:42:01.785Z,5.37
2022-12-11T14:44:33.613Z,2.47
2022-12-11T14:47:04.639Z,4.77
2022-12-11T14:49:41.037Z,5.57
2022-12-11T14:52:17.979Z,3.93
2022-12-11T14:54:47.748Z,4.87
2022-12-11T14:57:21.044Z,4.73
2022-12-11T14:59:53.847Z,5.10
2022-12-11T15:02:29.788Z,5.30
2022-12-11T15:05:19.961Z,5.07
2022-12-11T15:07:57.358Z,5.50
2022-12-11T15:10:31.259Z,4.50
2022-12-11T15:13:01.097Z,6.03
2022-12-11T15:15:30.017Z,5.93
2022-12-11T15:17:58.346Z,5.67
2022-12-11T15:20:28.613Z,5.50
2022-12-11T15:23:01.393Z,5.67
2022-12-11T15:25:31.115Z,5.37
2022-12-11T15:28:01.476Z,7.03
2022-12-11T15:30:33.231Z,6.13
2022-12-11T15:33:22.609Z,6.13
2022-12-11T15:35:56.917Z,7.10
2022-12-11T15:38:33.520Z,6.83
2022-12-11T15:41:01.930Z,6.77
2022-12-11T15:43:35.914Z,5.90
2022-12-11T15:46:04.824Z,6.10
2022-12-11T15:48:33.098Z,6.30
2022-12-11T15:51:01.179Z,6.67
2022-12-11T15:53:29.148Z,6.33
2022-12-11T15:55:59.162Z,6.87
2022-12-11T15:58:27.947Z,6.93
2022-12-11T16:00:58.555Z,7.17
2022-12-11T16:03:27.264Z,7.97
2022-12-11T16:05:55.722Z,10.07
2022-12-11T16:08:25.130Z,7.90
2022-12-11T16:10:55.244Z,8.43
2022-12-11T16:13:23.784Z,7.43
2022-12-11T16:15:53.705Z,7.70
2022-12-11T16:18:24.693Z,8.87
2022-12-11T16:20:53.236Z,8.20
2022-12-11T16:23:21.906Z,8.93
2022-12-11T16:25:50.773Z,8.33
2022-12-11T16:28:22.194Z,7.50
2022-12-11T16:30:51.028Z,7.70
2022-12-11T16:33:19.509Z,8.10
2022-12-11T16:35:49.255Z,8.83
2022-12-11T16:38:17.860Z,7.80
2022-12-11T16:40:46.589Z,7.77
2022-12-11T16:43:14.610Z,8.27
2022-12-11T16:45:44.739Z,8.07
2022-12-11T16:48:12.745Z,7.77
2022-12-11T16:50:41.467Z,6.93
2022-12-11T16:53:14.596Z,7.80
2022-12-11T16:55:42.659Z,6.60
2022-12-11T16:58:15.857Z,8.57
2022-12-11T17:00:48.105Z,8.13
2022-12-11T17:03:16.542Z,8.40
2022-12-11T17:05:45.424Z,9.30
2022-12-11T17:08:15.213Z,7.60
2022-12-11T17:10:43.973Z,8.03
2022-12-11T17:13:12.563Z,5.90
2022-12-11T17:15:41.614Z,7.03
2022-12-11T17:18:10.522Z,5.07
2022-12-11T17:20:41.707Z,8.17
2022-12-11T17:23:10.626Z,7.60
2022-12-11T17:25:42.870Z,9.43
2022-12-11T17:28:12.012Z,7.20
2022-12-11T17:30:42.075Z,8.50
2022-12-11T17:33:10.796Z,8.40
2022-12-11T17:35:39.202Z,7.70
2022-12-11T17:38:07.815Z,8.00
2022-12-11T17:40:36.388Z,7.27
2022-12-11T17:43:09.559Z,8.87
2022-12-11T17:45:43.014Z,8.47
2022-12-11T17:48:11.575Z,8.80
2022-12-11T17:50:42.697Z,9.00
2022-12-11T17:53:11.090Z,8.30
2022-12-11T17:55:42.799Z,9.77
2022-12-11T17:58:12.998Z,9.87
2022-12-11T18:00:41.774Z,8.20
2022-12-11T18:03:10.474Z,8.97
2022-12-11T18:05:42.447Z,8.77
2022-12-11T18:08:12.350Z,8.83
2022-12-11T18:10:42.068Z,5.97
2022-12-11T18:16:03.612Z,8.43
2022-12-11T18:18:33.876Z,7.97
2022-12-11T18:21:02.592Z,8.13
2022-12-11T18:23:46.113Z,9.03
2022-12-11T18:26:17.750Z,8.03
2022-12-11T18:28:58.389Z,7.40
2022-12-11T18:31:29.213Z,7.10
2022-12-11T18:36:48.537Z,7.47
2022-12-11T18:39:37.434Z,6.87
2022-12-11T18:42:31.589Z,8.57
2022-12-11T18:44:55.425Z,7.00
2022-12-11T18:47:26.476Z,8.17
2022-12-11T18:49:55.268Z,7.57
2022-12-11T18:52:23.604Z,7.80
2022-12-11T18:54:52.430Z,8.43
2022-12-11T18:57:21.203Z,7.07
2022-12-11T18:59:52.077Z,8.90
2022-12-11T19:02:20.682Z,8.60
2022-12-11T19:04:52.472Z,8.37
2022-12-11T19:07:25.023Z,8.80
2022-12-11T19:09:54.305Z,9.00
2022-12-11T19:12:26.179Z,6.83
2022-12-11T19:18:01.864Z,9.50
2022-12-11T19:21:08.747Z,8.23
2022-12-11T19:23:56.422Z,7.80
2022-12-11T19:32:36.626Z,4.27
2022-12-11T19:41:26.952Z,4.20
2022-12-11T19:43:58.775Z,5.00
2022-12-11T19:46:29.422Z,4.77
2022-12-11T19:48:59.368Z,4.87
2022-12-11T19:51:34.403Z,4.73
2022-12-11T19:54:18.081Z,5.00
2022-12-11T19:56:50.748Z,4.43
2022-12-11T20:02:10.111Z,4.77
2022-12-11T20:04:56.970Z,4.63
2022-12-11T20:07:30.677Z,5.00
2022-12-11T20:10:03.288Z,5.17
2022-12-11T20:12:34.343Z,5.40
2022-12-11T20:15:03.284Z,5.43
2022-12-11T20:17:33.724Z,5.37
2022-12-11T20:20:18.426Z,5.17
2022-12-11T20:22:48.896Z,5.30
2022-12-11T20:25:32.239Z,5.90
2022-12-11T20:28:13.066Z,8.30
2022-12-11T20:30:56.328Z,9.80
2022-12-11T20:33:25.360Z,8.83
2022-12-11T20:35:53.969Z,9.87
2022-12-11T20:41:07.989Z,10.10
2022-12-11T20:43:39.001Z,9.43
2022-12-11T20:46:10.800Z,9.13
2022-12-11T20:48:40.955Z,9.43
2022-12-11T20:51:11.567Z,9.20
2022-12-11T20:53:40.155Z,10.00
2022-12-11T20:56:12.104Z,11.17
2022-12-11T20:58:42.492Z,9.17
2022-12-11T21:01:16.038Z,8.13
2022-12-11T21:03:44.687Z,9.50
2022-12-11T21:06:19.088Z,9.20
2022-12-11T21:08:47.548Z,8.57
2022-12-11T21:11:15.905Z,9.53
2022-12-11T21:14:16.725Z,8.83
2022-12-11T21:16:45.682Z,8.93
2022-12-11T21:19:17.123Z,9.40
2022-12-11T21:21:46.241Z,8.07
2022-12-11T21:24:16.059Z,9.73
2022-12-11T21:26:44.552Z,10.10
2022-12-11T21:29:14.429Z,9.47
2022-12-11T21:31:42.907Z,9.70
2022-12-11T21:34:11.226Z,10.10
2022-12-11T21:36:39.669Z,9.57
2022-12-11T21:39:08.277Z,8.57
2022-12-11T21:41:36.619Z,9.00
2022-12-11T21:46:55.505Z,9.97
2022-12-11T21:49:24.086Z,10.00
2022-12-11T21:51:52.590Z,8.57
2022-12-11T21:54:21.113Z,10.00
2022-12-11T21:56:49.395Z,8.87
2022-12-11T21:59:17.436Z,9.17
2022-12-11T22:01:47.080Z,9.57
2022-12-11T22:04:17.797Z,9.00
2022-12-11T22:06:47.338Z,9.37
2022-12-11T22:11:58.862Z,9.43
2022-12-11T22:14:27.378Z,9.40
2022-12-11T22:16:55.892Z,9.47
2022-12-11T22:19:32.167Z,8.97
2022-12-11T22:22:00.974Z,9.13
2022-12-11T22:24:29.442Z,8.80
2022-12-11T22:26:57.761Z,9.33
2022-12-11T22:29:26.186Z,9.97
2022-12-11T22:31:54.879Z,7.87
2022-12-11T22:34:23.429Z,9.67
2022-12-11T22:36:53.248Z,9.03
2022-12-11T22:39:21.755Z,8.67
2022-12-11T22:41:50.278Z,9.73
2022-12-11T22:44:21.349Z,8.83
2022-12-11T22:46:50.731Z,9.07
2022-12-11T22:49:20.264Z,9.03
2022-12-11T22:51:48.920Z,8.93
2022-12-11T22:54:19.226Z,9.27
2022-12-11T22:56:47.728Z,8.67
2022-12-11T22:59:16.609Z,9.23
2022-12-11T23:01:45.287Z,9.10
2022-12-11T23:04:13.675Z,9.43
2022-12-11T23:06:42.032Z,9.43
2022-12-11T23:09:10.422Z,8.33
2022-12-11T23:11:40.261Z,9.63
2022-12-11T23:14:12.302Z,9.00
2022-12-11T23:16:40.652Z,8.37
2022-12-11T23:19:09.139Z,9.73
2022-12-11T23:21:37.570Z,9.40
2022-12-11T23:24:06.219Z,9.07
2022-12-11T23:26:34.616Z,10.63
2022-12-11T23:29:06.573Z,8.73
2022-12-11T23:31:34.864Z,9.03
2022-12-11T23:34:03.152Z,9.30
2022-12-11T23:36:32.103Z,9.30
2022-12-11T23:39:00.492Z,9.23
2022-12-11T23:41:29.148Z,9.03
2022-12-11T23:43:57.507Z,8.33
2022-12-11T23:46:27.409Z,8.80
2022-12-11T23:48:56.473Z,8.70
2022-12-11T23:51:26.652Z,9.53
2022-12-11T23:53:55.363Z,10.23
2022-12-11T23:56:24.709Z,8.47
2022-12-11T23:58:53.230Z,8.43
